createdAt,value
2019-06-20T00:00:29.816Z,25.70
2019-06-20T00:01:28.968Z,25.69
2019-06-20T00:02:28.947Z,25.73
2019-06-20T00:03:29.837Z,25.69
2019-06-20T00:04:28.951Z,25.69
2019-06-20T00:05:28.930Z,25.64
2019-06-20T00:06:28.905Z,25.70
2019-06-20T00:07:28.891Z,25.69
2019-06-20T00:08:28.881Z,25.77
2019-06-20T00:09:28.891Z,25.67
2019-06-20T00:10:28.888Z,25.70
2019-06-20T00:11:28.847Z,25.64
2019-06-20T00:12:28.849Z,25.62
2019-06-20T00:13:28.837Z,25.75
2019-06-20T00:14:28.851Z,25.70
2019-06-20T00:15:28.806Z,25.70
2019-06-20T00:16:29.329Z,25.70
2019-06-20T00:17:29.323Z,25.70
2019-06-20T00:18:28.772Z,25.69
2019-06-20T00:19:28.819Z,25.76
2019-06-20T00:20:28.758Z,25.72
2019-06-20T00:21:28.753Z,25.73
2019-06-20T00:22:29.310Z,25.77
2019-06-20T00:23:29.314Z,25.73
2019-06-20T00:24:29.316Z,25.69
2019-06-20T00:25:28.859Z,25.72
2019-06-20T00:26:28.706Z,25.73
2019-06-20T00:27:28.676Z,25.72
2019-06-20T00:28:28.684Z,25.67
2019-06-20T00:29:28.655Z,25.72
2019-06-20T00:30:28.849Z,25.70
2019-06-20T00:31:28.712Z,25.69
2019-06-20T00:32:28.625Z,25.75
2019-06-20T00:33:28.626Z,25.67
2019-06-20T00:34:28.611Z,25.70
2019-06-20T00:35:28.608Z,25.70
2019-06-20T00:36:28.580Z,25.76
2019-06-20T00:37:28.572Z,25.72
2019-06-20T00:38:28.557Z,25.75
2019-06-20T00:39:28.571Z,25.65
2019-06-20T00:40:28.549Z,25.70
2019-06-20T00:41:28.524Z,25.72
2019-06-20T00:42:28.512Z,25.67
2019-06-20T00:43:28.513Z,25.67
2019-06-20T00:44:28.574Z,25.70
2019-06-20T00:45:28.834Z,25.67
2019-06-20T00:46:28.464Z,25.67
2019-06-20T00:47:28.460Z,25.75
2019-06-20T00:48:28.493Z,25.70
2019-06-20T00:49:28.457Z,25.69
2019-06-20T00:50:28.849Z,25.72
2019-06-20T00:51:28.415Z,25.70
2019-06-20T00:52:28.403Z,25.72
2019-06-20T00:53:28.396Z,25.70
2019-06-20T00:54:28.474Z,25.70
2019-06-20T00:55:28.841Z,25.70
2019-06-20T00:56:28.358Z,25.70
2019-06-20T00:57:28.349Z,25.75
2019-06-20T00:58:28.347Z,25.69
2019-06-20T00:59:28.325Z,25.72
2019-06-20T01:00:28.354Z,25.72
2019-06-20T01:01:28.303Z,25.73
2019-06-20T01:02:28.289Z,25.73
2019-06-20T01:03:28.277Z,25.77
2019-06-20T01:04:28.864Z,25.70
2019-06-20T01:05:28.292Z,25.65
2019-06-20T01:06:28.245Z,25.70
2019-06-20T01:07:28.244Z,25.69
2019-06-20T01:08:28.837Z,25.67
2019-06-20T01:09:28.209Z,25.69
2019-06-20T01:10:28.236Z,25.65
2019-06-20T01:11:28.195Z,25.72
2019-06-20T01:12:28.178Z,25.72
2019-06-20T01:13:33.397Z,25.65
2019-06-20T01:14:28.161Z,25.67
2019-06-20T01:15:28.190Z,25.72
2019-06-20T01:16:28.138Z,25.70
2019-06-20T01:17:28.130Z,25.65
2019-06-20T01:18:28.114Z,25.75
2019-06-20T01:19:28.109Z,25.70
2019-06-20T01:20:28.099Z,25.67
2019-06-20T01:21:28.098Z,25.70
2019-06-20T01:22:28.073Z,25.72
2019-06-20T01:23:28.063Z,25.72
2019-06-20T01:24:28.057Z,25.77
2019-06-20T01:25:28.828Z,25.70
2019-06-20T01:26:28.048Z,25.67
2019-06-20T01:27:28.024Z,25.69
2019-06-20T01:28:28.006Z,25.70
2019-06-20T01:29:27.996Z,25.72
2019-06-20T01:30:27.989Z,25.69
2019-06-20T01:31:27.997Z,25.76
2019-06-20T01:32:27.974Z,25.69
2019-06-20T01:33:27.952Z,25.69
2019-06-20T01:34:27.948Z,25.70
2019-06-20T01:35:27.933Z,25.69
2019-06-20T01:36:28.333Z,25.69
2019-06-20T01:37:27.919Z,25.76
2019-06-20T01:38:27.900Z,25.72
2019-06-20T01:39:27.905Z,25.76
2019-06-20T01:40:27.922Z,25.72
2019-06-20T01:41:28.340Z,25.72
2019-06-20T01:42:27.872Z,25.72
2019-06-20T01:43:27.850Z,25.67
2019-06-20T01:44:27.847Z,25.70
2019-06-20T01:45:28.823Z,25.70
2019-06-20T01:46:27.829Z,25.69
2019-06-20T01:47:27.814Z,25.75
2019-06-20T01:48:27.807Z,25.67
2019-06-20T01:49:27.783Z,25.76
2019-06-20T01:50:27.782Z,25.70
2019-06-20T01:51:27.841Z,25.67
2019-06-20T01:52:27.761Z,25.70
2019-06-20T01:53:27.749Z,25.70
2019-06-20T01:54:28.337Z,25.69
2019-06-20T01:55:27.724Z,25.70
2019-06-20T01:56:27.717Z,25.69
2019-06-20T01:57:27.737Z,25.70
2019-06-20T01:58:27.701Z,25.69
2019-06-20T01:59:27.692Z,25.67
2019-06-20T02:00:27.690Z,25.70
2019-06-20T02:01:27.670Z,25.75
2019-06-20T02:02:27.692Z,25.70
2019-06-20T02:03:27.633Z,25.72
2019-06-20T02:04:27.628Z,25.72
2019-06-20T02:05:27.630Z,25.69
2019-06-20T02:06:27.855Z,25.77
2019-06-20T02:07:28.305Z,25.70
2019-06-20T02:08:27.579Z,25.69
2019-06-20T02:09:27.570Z,25.76
2019-06-20T02:10:27.562Z,25.69
2019-06-20T02:11:27.867Z,25.72
2019-06-20T02:12:28.326Z,25.75
2019-06-20T02:13:27.523Z,25.72
2019-06-20T02:14:27.522Z,25.64
2019-06-20T02:15:27.504Z,25.72
2019-06-20T02:16:27.521Z,25.75
2019-06-20T02:17:28.343Z,25.65
2019-06-20T02:18:28.326Z,25.75
2019-06-20T02:19:27.471Z,25.77
2019-06-20T02:20:27.478Z,25.70
2019-06-20T02:21:27.458Z,25.72
2019-06-20T02:22:27.581Z,25.69
2019-06-20T02:23:27.420Z,25.67
2019-06-20T02:24:27.415Z,25.72
2019-06-20T02:25:27.412Z,25.76
2019-06-20T02:26:28.342Z,25.70
2019-06-20T02:27:27.404Z,25.75
2019-06-20T02:28:27.397Z,25.76
2019-06-20T02:29:27.358Z,25.72
2019-06-20T02:30:27.349Z,25.75
2019-06-20T02:31:27.355Z,25.69
2019-06-20T02:32:27.346Z,25.73
2019-06-20T02:33:27.313Z,25.70
2019-06-20T02:34:27.317Z,25.72
2019-06-20T02:35:27.293Z,25.67
2019-06-20T02:36:27.296Z,25.72
2019-06-20T02:37:27.288Z,25.72
2019-06-20T02:38:27.267Z,25.67
2019-06-20T02:39:27.844Z,25.67
2019-06-20T02:40:27.261Z,25.72
2019-06-20T02:41:27.241Z,25.65
2019-06-20T02:42:27.231Z,25.70
2019-06-20T02:43:27.210Z,25.69
2019-06-20T02:44:30.517Z,25.67
2019-06-20T02:45:27.202Z,25.69
2019-06-20T02:46:27.216Z,25.65
2019-06-20T02:47:27.185Z,25.75
2019-06-20T02:48:27.825Z,25.69
2019-06-20T02:49:27.146Z,25.65
2019-06-20T02:50:27.135Z,25.61
2019-06-20T02:51:27.130Z,25.69
2019-06-20T02:52:27.123Z,25.69
2019-06-20T02:53:27.110Z,25.72
2019-06-20T02:54:27.088Z,25.62
2019-06-20T02:55:27.095Z,25.69
2019-06-20T02:56:27.830Z,25.77
2019-06-20T02:57:27.095Z,25.69
2019-06-20T02:58:27.071Z,25.61
2019-06-20T02:59:27.039Z,25.73
2019-06-20T03:00:27.027Z,25.70
2019-06-20T03:01:27.017Z,25.72
2019-06-20T03:02:27.020Z,25.67
2019-06-20T03:03:26.996Z,25.67
2019-06-20T03:04:26.993Z,25.65
2019-06-20T03:05:26.977Z,25.65
2019-06-20T03:06:26.962Z,25.70
2019-06-20T03:07:26.968Z,25.69
2019-06-20T03:08:26.943Z,25.69
2019-06-20T03:09:26.976Z,25.69
2019-06-20T03:10:26.923Z,25.70
2019-06-20T03:11:26.911Z,25.76
2019-06-20T03:12:26.926Z,25.67
2019-06-20T03:13:26.892Z,25.70
2019-06-20T03:14:26.883Z,25.67
2019-06-20T03:15:26.871Z,25.67
2019-06-20T03:16:26.856Z,25.67
2019-06-20T03:17:26.880Z,25.70
2019-06-20T03:18:26.843Z,25.75
2019-06-20T03:19:26.827Z,25.75
2019-06-20T03:20:26.819Z,25.67
2019-06-20T03:21:26.811Z,25.69
2019-06-20T03:22:26.823Z,25.69
2019-06-20T03:23:27.331Z,25.70
2019-06-20T03:24:27.365Z,25.73
2019-06-20T03:25:26.756Z,25.70
2019-06-20T03:26:26.772Z,25.76
2019-06-20T03:27:26.857Z,25.70
2019-06-20T03:28:26.729Z,25.70
2019-06-20T03:29:26.715Z,25.64
2019-06-20T03:30:26.706Z,25.72
2019-06-20T03:31:26.695Z,25.61
2019-06-20T03:32:26.709Z,25.69
2019-06-20T03:33:26.696Z,25.69
2019-06-20T03:34:26.672Z,25.73
2019-06-20T03:35:26.663Z,25.73
2019-06-20T03:36:26.648Z,25.70
2019-06-20T03:37:26.640Z,25.69
2019-06-20T03:38:26.644Z,25.72
2019-06-20T03:39:26.615Z,25.70
2019-06-20T03:40:26.611Z,25.77
2019-06-20T03:41:26.600Z,25.69
2019-06-20T03:42:26.600Z,25.67
2019-06-20T03:43:26.600Z,25.76
2019-06-20T03:44:26.569Z,25.73
2019-06-20T03:45:26.545Z,25.75
2019-06-20T03:46:26.555Z,25.70
2019-06-20T03:47:26.548Z,25.67
2019-06-20T03:48:26.849Z,25.67
2019-06-20T03:49:26.543Z,25.72
2019-06-20T03:50:26.495Z,25.70
2019-06-20T03:51:26.486Z,25.73
2019-06-20T03:52:26.523Z,25.73
2019-06-20T03:53:26.471Z,25.76
2019-06-20T03:54:26.448Z,25.73
2019-06-20T03:55:26.445Z,25.75
2019-06-20T03:56:26.434Z,25.69
2019-06-20T03:57:26.493Z,25.73
2019-06-20T03:58:26.422Z,25.72
2019-06-20T03:59:26.393Z,25.70
2019-06-20T04:00:26.392Z,25.73
2019-06-20T04:01:27.338Z,25.70
2019-06-20T04:02:26.369Z,25.73
2019-06-20T04:03:26.363Z,25.72
2019-06-20T04:04:26.347Z,25.72
2019-06-20T04:05:26.334Z,25.69
2019-06-20T04:06:26.840Z,25.73
2019-06-20T04:07:26.333Z,25.72
2019-06-20T04:08:26.319Z,25.73
2019-06-20T04:09:26.301Z,25.70
2019-06-20T04:10:26.287Z,25.67
2019-06-20T04:11:26.838Z,25.76
2019-06-20T04:12:26.289Z,25.72
2019-06-20T04:13:26.288Z,25.75
2019-06-20T04:14:26.234Z,25.75
2019-06-20T04:15:26.226Z,25.69
2019-06-20T04:16:26.213Z,25.75
2019-06-20T04:17:26.221Z,25.73
2019-06-20T04:18:26.854Z,25.65
2019-06-20T04:19:26.200Z,25.75
2019-06-20T04:20:26.169Z,25.72
2019-06-20T04:21:26.156Z,25.70
2019-06-20T04:22:26.145Z,25.73
2019-06-20T04:23:26.854Z,25.72
2019-06-20T04:24:28.018Z,25.77
2019-06-20T04:25:26.120Z,25.73
2019-06-20T04:26:26.099Z,25.70
2019-06-20T04:27:26.094Z,25.76
2019-06-20T04:28:26.833Z,25.76
2019-06-20T04:29:26.107Z,25.76
2019-06-20T04:30:26.065Z,25.70
2019-06-20T04:31:26.054Z,25.64
2019-06-20T04:32:26.040Z,25.76
2019-06-20T04:33:26.025Z,25.75
2019-06-20T04:34:26.348Z,25.79
2019-06-20T04:35:26.014Z,25.73
2019-06-20T04:36:26.000Z,25.77
2019-06-20T04:37:25.992Z,25.80
2019-06-20T04:38:25.977Z,25.73
2019-06-20T04:39:25.970Z,25.69
2019-06-20T04:40:26.835Z,25.73
2019-06-20T04:41:25.944Z,25.73
2019-06-20T04:42:25.925Z,25.75
2019-06-20T04:43:25.918Z,25.72
2019-06-20T04:44:25.921Z,25.76
2019-06-20T04:45:35.205Z,25.70
2019-06-20T04:46:25.889Z,25.73
2019-06-20T04:47:25.867Z,25.79
2019-06-20T04:48:25.859Z,25.76
2019-06-20T04:49:25.855Z,25.75
2019-06-20T04:50:26.342Z,25.73
2019-06-20T04:51:26.356Z,25.76
2019-06-20T04:52:25.829Z,25.76
2019-06-20T04:53:25.808Z,25.80
2019-06-20T04:54:25.813Z,25.76
2019-06-20T04:55:25.786Z,25.70
2019-06-20T04:56:25.769Z,25.72
2019-06-20T04:57:25.768Z,25.70
2019-06-20T04:58:25.768Z,25.77
2019-06-20T04:59:25.746Z,25.75
2019-06-20T05:00:25.731Z,25.76
2019-06-20T05:01:25.755Z,25.76
2019-06-20T05:02:26.407Z,25.70
2019-06-20T05:03:25.717Z,25.75
2019-06-20T05:04:25.699Z,25.70
2019-06-20T05:05:25.671Z,25.76
2019-06-20T05:06:25.666Z,25.80
2019-06-20T05:07:26.348Z,25.76
2019-06-20T05:08:25.654Z,25.79
2019-06-20T05:09:25.647Z,25.85
2019-06-20T05:10:25.614Z,25.82
2019-06-20T05:11:25.608Z,25.79
2019-06-20T05:12:25.597Z,25.76
2019-06-20T05:13:25.604Z,25.85
2019-06-20T05:14:25.590Z,25.75
2019-06-20T05:15:26.342Z,25.75
2019-06-20T05:16:25.559Z,25.80
2019-06-20T05:17:26.339Z,25.80
2019-06-20T05:18:25.551Z,25.77
2019-06-20T05:19:25.548Z,25.82
2019-06-20T05:20:25.518Z,25.80
2019-06-20T05:21:25.501Z,25.76
2019-06-20T05:22:25.492Z,25.77
2019-06-20T05:23:25.491Z,25.75
2019-06-20T05:24:25.748Z,25.79
2019-06-20T05:25:25.467Z,25.87
2019-06-20T05:26:25.453Z,25.79
2019-06-20T05:27:25.468Z,25.76
2019-06-20T05:28:25.442Z,25.79
2019-06-20T05:29:25.424Z,25.80
2019-06-20T05:30:25.408Z,25.88
2019-06-20T05:31:25.392Z,25.73
2019-06-20T05:32:25.397Z,25.79
2019-06-20T05:33:26.355Z,25.76
2019-06-20T05:34:25.379Z,25.77
2019-06-20T05:35:26.354Z,25.76
2019-06-20T05:36:25.336Z,25.79
2019-06-20T05:37:25.351Z,25.83
2019-06-20T05:38:25.323Z,25.80
2019-06-20T05:39:25.382Z,25.80
2019-06-20T05:40:25.313Z,25.85
2019-06-20T05:41:25.287Z,25.88
2019-06-20T05:42:25.299Z,25.76
2019-06-20T05:43:25.265Z,25.80
2019-06-20T05:44:25.266Z,25.83
2019-06-20T05:45:25.253Z,25.82
2019-06-20T05:46:25.232Z,25.75
2019-06-20T05:47:25.220Z,25.80
2019-06-20T05:48:25.441Z,25.82
2019-06-20T05:49:25.236Z,25.87
2019-06-20T05:50:25.226Z,25.77
2019-06-20T05:51:25.180Z,25.79
2019-06-20T05:52:25.175Z,25.83
2019-06-20T05:53:25.158Z,25.83
2019-06-20T05:54:25.167Z,25.76
2019-06-20T05:55:25.144Z,25.75
2019-06-20T05:56:26.009Z,25.85
2019-06-20T05:57:25.111Z,25.85
2019-06-20T05:58:25.101Z,25.88
2019-06-20T05:59:25.861Z,25.82
2019-06-20T06:00:25.087Z,25.83
2019-06-20T06:01:26.412Z,25.75
2019-06-20T06:02:25.058Z,25.76
2019-06-20T06:03:25.048Z,25.85
2019-06-20T06:04:25.049Z,25.76
2019-06-20T06:05:25.113Z,25.85
2019-06-20T06:06:25.013Z,25.82
2019-06-20T06:07:25.034Z,25.77
2019-06-20T06:08:24.999Z,25.80
2019-06-20T06:09:24.994Z,25.85
2019-06-20T06:10:25.371Z,25.83
2019-06-20T06:11:24.966Z,25.83
2019-06-20T06:12:25.859Z,25.85
2019-06-20T06:13:24.953Z,25.90
2019-06-20T06:14:24.941Z,25.82
2019-06-20T06:15:24.943Z,25.83
2019-06-20T06:16:27.254Z,25.83
2019-06-20T06:17:25.844Z,25.79
2019-06-20T06:18:24.909Z,25.85
2019-06-20T06:19:24.884Z,25.88
2019-06-20T06:20:25.365Z,25.85
2019-06-20T06:21:24.855Z,25.77
2019-06-20T06:22:25.353Z,25.80
2019-06-20T06:23:24.843Z,25.83
2019-06-20T06:24:24.848Z,25.87
2019-06-20T06:25:24.832Z,25.79
2019-06-20T06:26:24.815Z,25.76
2019-06-20T06:27:24.797Z,25.85
2019-06-20T06:28:24.789Z,25.76
2019-06-20T06:29:24.788Z,25.76
2019-06-20T06:30:24.765Z,25.79
2019-06-20T06:31:25.344Z,25.76
2019-06-20T06:32:39.210Z,25.87
2019-06-20T06:33:24.723Z,25.83
2019-06-20T06:34:24.722Z,25.82
2019-06-20T06:35:25.007Z,25.79
2019-06-20T06:36:24.712Z,25.91
2019-06-20T06:37:24.686Z,25.79
2019-06-20T06:38:24.753Z,25.79
2019-06-20T06:39:24.662Z,25.79
2019-06-20T06:40:24.675Z,25.88
2019-06-20T06:41:24.647Z,25.85
2019-06-20T06:42:24.637Z,25.90
2019-06-20T06:43:24.618Z,25.87
2019-06-20T06:44:24.603Z,25.79
2019-06-20T06:45:24.610Z,25.80
2019-06-20T06:46:24.862Z,25.79
2019-06-20T06:47:25.349Z,25.77
2019-06-20T06:48:24.563Z,25.82
2019-06-20T06:49:24.555Z,25.82
2019-06-20T06:50:24.557Z,25.91
2019-06-20T06:51:24.777Z,25.83
2019-06-20T06:52:24.524Z,25.90
2019-06-20T06:53:24.523Z,25.92
2019-06-20T06:54:24.499Z,25.87
2019-06-20T06:55:27.443Z,25.88
2019-06-20T06:56:24.865Z,25.85
2019-06-20T06:57:24.475Z,25.94
2019-06-20T06:58:24.457Z,25.79
2019-06-20T06:59:24.446Z,25.80
2019-06-20T07:00:24.449Z,25.92
2019-06-20T07:01:24.437Z,25.88
2019-06-20T07:02:24.411Z,25.87
2019-06-20T07:03:24.410Z,25.92
2019-06-20T07:04:25.358Z,25.95
2019-06-20T07:05:24.392Z,25.95
2019-06-20T07:06:24.379Z,25.94
2019-06-20T07:07:25.352Z,25.90
2019-06-20T07:08:24.353Z,25.95
2019-06-20T07:09:24.341Z,25.92
2019-06-20T07:10:24.372Z,25.88
2019-06-20T07:11:24.326Z,25.94
2019-06-20T07:12:24.309Z,25.91
2019-06-20T07:13:24.302Z,25.92
2019-06-20T07:14:24.861Z,25.90
2019-06-20T07:15:24.297Z,25.97
2019-06-20T07:16:24.282Z,25.91
2019-06-20T07:17:24.253Z,25.97
2019-06-20T07:18:24.853Z,25.97
2019-06-20T07:19:24.231Z,25.92
2019-06-20T07:20:24.865Z,25.99
2019-06-20T07:21:24.238Z,26.02
2019-06-20T07:22:24.212Z,25.92
2019-06-20T07:23:24.193Z,26.02
2019-06-20T07:24:24.184Z,26.05
2019-06-20T07:25:24.176Z,26.05
2019-06-20T07:26:24.169Z,26.05
2019-06-20T07:27:24.165Z,26.06
2019-06-20T07:28:24.134Z,26.06
2019-06-20T07:29:24.124Z,26.06
2019-06-20T07:30:24.132Z,26.01
2019-06-20T07:31:24.371Z,26.02
2019-06-20T07:32:24.091Z,26.06
2019-06-20T07:33:24.084Z,26.05
2019-06-20T07:34:24.857Z,26.07
2019-06-20T07:35:24.077Z,26.01
2019-06-20T07:36:24.058Z,26.17
2019-06-20T07:37:24.039Z,26.13
2019-06-20T07:38:24.036Z,26.12
2019-06-20T07:39:24.023Z,26.13
2019-06-20T07:40:24.017Z,26.18
2019-06-20T07:41:24.364Z,26.13
2019-06-20T07:42:23.979Z,26.12
2019-06-20T07:43:23.983Z,26.20
2019-06-20T07:44:23.978Z,26.15
2019-06-20T07:45:27.152Z,26.23
2019-06-20T07:46:24.369Z,26.12
2019-06-20T07:47:23.945Z,26.10
2019-06-20T07:48:24.851Z,26.18
2019-06-20T07:49:24.851Z,26.21
2019-06-20T07:50:23.910Z,26.26
2019-06-20T07:51:23.889Z,26.15
2019-06-20T07:52:23.874Z,26.26
2019-06-20T07:53:23.896Z,26.15
2019-06-20T07:54:23.877Z,26.09
2019-06-20T07:55:24.369Z,26.20
2019-06-20T07:56:23.839Z,26.13
2019-06-20T07:57:23.813Z,26.12
2019-06-20T07:58:23.803Z,26.12
2019-06-20T07:59:23.792Z,26.09
2019-06-20T08:00:23.815Z,26.17
2019-06-20T08:01:23.866Z,26.12
2019-06-20T08:02:23.768Z,26.20
2019-06-20T08:03:23.755Z,26.21
2019-06-20T08:04:24.357Z,26.18
2019-06-20T08:05:23.736Z,26.21
2019-06-20T08:06:23.730Z,26.21
2019-06-20T08:07:23.708Z,26.18
2019-06-20T08:08:23.690Z,26.18
2019-06-20T08:09:24.354Z,26.18
2019-06-20T08:10:23.680Z,26.18
2019-06-20T08:11:23.869Z,26.20
2019-06-20T08:12:23.653Z,26.28
2019-06-20T08:13:23.679Z,26.18
2019-06-20T08:14:23.632Z,26.23
2019-06-20T08:15:23.610Z,26.21
2019-06-20T08:16:23.890Z,26.26
2019-06-20T08:17:34.884Z,26.23
2019-06-20T08:18:23.587Z,26.26
2019-06-20T08:19:24.362Z,26.28
2019-06-20T08:20:23.556Z,26.25
2019-06-20T08:21:24.368Z,26.26
2019-06-20T08:22:23.550Z,26.29
2019-06-20T08:23:23.525Z,26.26
2019-06-20T08:24:24.352Z,26.26
2019-06-20T08:25:23.526Z,26.40
2019-06-20T08:26:23.509Z,26.30
2019-06-20T08:27:23.493Z,26.32
2019-06-20T08:28:23.470Z,26.36
2019-06-20T08:29:24.355Z,26.28
2019-06-20T08:30:23.469Z,26.36
2019-06-20T08:31:23.453Z,26.37
2019-06-20T08:32:23.882Z,26.35
2019-06-20T08:33:23.422Z,26.32
2019-06-20T08:34:23.417Z,26.32
2019-06-20T08:35:23.401Z,26.35
2019-06-20T08:36:23.409Z,26.40
2019-06-20T08:37:23.383Z,26.44
2019-06-20T08:38:23.360Z,26.29
2019-06-20T08:39:23.871Z,26.30
2019-06-20T08:40:23.344Z,26.43
2019-06-20T08:41:23.344Z,26.40
2019-06-20T08:42:23.322Z,26.32
2019-06-20T08:43:23.309Z,26.40
2019-06-20T08:44:23.295Z,26.43
2019-06-20T08:45:23.295Z,26.32
2019-06-20T08:46:23.332Z,26.35
2019-06-20T08:47:23.271Z,26.33
2019-06-20T08:48:23.276Z,26.40
2019-06-20T08:49:23.859Z,26.33
2019-06-20T08:50:23.228Z,26.44
2019-06-20T08:51:23.236Z,26.47
2019-06-20T08:52:23.378Z,26.43
2019-06-20T08:53:23.229Z,26.44
2019-06-20T08:54:23.205Z,26.44
2019-06-20T08:55:23.177Z,26.44
2019-06-20T08:56:23.188Z,26.39
2019-06-20T08:57:23.507Z,26.47
2019-06-20T08:58:23.145Z,26.37
2019-06-20T08:59:24.781Z,26.52
2019-06-20T09:00:23.121Z,26.50
2019-06-20T09:01:23.319Z,26.48
2019-06-20T09:02:23.393Z,26.47
2019-06-20T09:03:23.859Z,26.52
2019-06-20T09:04:23.085Z,26.47
2019-06-20T09:05:23.069Z,26.48
2019-06-20T09:06:23.055Z,26.47
2019-06-20T09:07:23.389Z,26.50
2019-06-20T09:08:23.032Z,26.52
2019-06-20T09:09:23.055Z,26.47
2019-06-20T09:10:23.870Z,26.50
2019-06-20T09:11:23.008Z,26.55
2019-06-20T09:12:23.378Z,26.45
2019-06-20T09:13:23.859Z,26.58
2019-06-20T09:14:22.961Z,26.50
2019-06-20T09:15:22.959Z,26.57
2019-06-20T09:16:24.765Z,26.55
2019-06-20T09:17:22.979Z,26.52
2019-06-20T09:18:22.923Z,26.55
2019-06-20T09:19:23.858Z,26.54
2019-06-20T09:20:22.920Z,26.51
2019-06-20T09:21:22.973Z,26.55
2019-06-20T09:22:22.901Z,26.48
2019-06-20T09:23:22.875Z,26.57
2019-06-20T09:24:22.857Z,26.62
2019-06-20T09:25:22.850Z,26.62
2019-06-20T09:26:22.850Z,26.57
2019-06-20T09:27:22.820Z,26.63
2019-06-20T09:28:22.816Z,26.57
2019-06-20T09:29:22.794Z,26.65
2019-06-20T09:30:22.786Z,26.54
2019-06-20T09:31:23.392Z,26.62
2019-06-20T09:32:22.780Z,26.67
2019-06-20T09:33:22.762Z,26.63
2019-06-20T09:34:22.742Z,26.58
2019-06-20T09:35:22.730Z,26.62
2019-06-20T09:36:23.359Z,26.62
2019-06-20T09:37:23.371Z,26.58
2019-06-20T09:38:22.709Z,26.70
2019-06-20T09:39:22.681Z,26.62
2019-06-20T09:40:22.671Z,26.60
2019-06-20T09:41:23.375Z,26.66
2019-06-20T09:42:22.649Z,26.58
2019-06-20T09:43:27.663Z,26.63
2019-06-20T09:44:22.627Z,26.67
2019-06-20T09:45:22.620Z,26.65
2019-06-20T09:46:23.364Z,26.55
2019-06-20T09:47:22.597Z,26.63
2019-06-20T09:48:22.594Z,26.70
2019-06-20T09:49:22.577Z,26.67
2019-06-20T09:50:22.573Z,26.73
2019-06-20T09:51:22.555Z,26.72
2019-06-20T09:52:23.361Z,26.72
2019-06-20T09:53:22.553Z,26.77
2019-06-20T09:54:22.531Z,26.72
2019-06-20T09:55:22.550Z,26.81
2019-06-20T09:56:22.523Z,26.72
2019-06-20T09:57:22.504Z,26.72
2019-06-20T09:58:22.486Z,26.77
2019-06-20T09:59:27.571Z,26.80
2019-06-20T10:00:22.467Z,26.76
2019-06-20T10:01:22.491Z,26.75
2019-06-20T10:02:22.450Z,26.81
2019-06-20T10:03:22.449Z,26.81
2019-06-20T10:04:22.463Z,26.84
2019-06-20T10:05:22.411Z,26.84
2019-06-20T10:06:22.397Z,26.81
2019-06-20T10:07:22.411Z,26.85
2019-06-20T10:08:22.368Z,26.85
2019-06-20T10:09:22.380Z,26.87
2019-06-20T10:10:22.346Z,26.85
2019-06-20T10:11:22.334Z,26.88
2019-06-20T10:12:22.346Z,26.92
2019-06-20T10:13:22.885Z,26.88
2019-06-20T10:14:22.318Z,26.94
2019-06-20T10:15:22.313Z,26.97
2019-06-20T10:16:22.280Z,26.91
2019-06-20T10:17:22.285Z,26.81
2019-06-20T10:18:22.268Z,26.91
2019-06-20T10:19:22.255Z,26.89
2019-06-20T10:20:22.241Z,26.94
2019-06-20T10:21:22.863Z,26.84
2019-06-20T10:22:22.251Z,26.87
2019-06-20T10:23:22.204Z,26.97
2019-06-20T10:24:22.213Z,26.97
2019-06-20T10:25:22.186Z,26.85
2019-06-20T10:26:22.255Z,26.97
2019-06-20T10:27:22.884Z,26.94
2019-06-20T10:28:22.870Z,26.91
2019-06-20T10:29:22.184Z,27.02
2019-06-20T10:30:22.133Z,26.97
2019-06-20T10:31:22.122Z,26.95
2019-06-20T10:32:22.124Z,26.99
2019-06-20T10:33:22.101Z,26.99
2019-06-20T10:34:22.377Z,27.07
2019-06-20T10:35:22.076Z,27.03
2019-06-20T10:36:22.067Z,26.97
2019-06-20T10:37:22.873Z,26.99
2019-06-20T10:38:22.059Z,27.03
2019-06-20T10:39:22.045Z,26.99
2019-06-20T10:40:22.040Z,27.04
2019-06-20T10:41:22.012Z,27.10
2019-06-20T10:42:21.998Z,27.03
2019-06-20T10:43:22.000Z,27.09
2019-06-20T10:44:21.996Z,27.06
2019-06-20T10:45:21.962Z,27.09
2019-06-20T10:46:21.959Z,27.04
2019-06-20T10:47:32.368Z,27.07
2019-06-20T10:48:22.013Z,27.07
2019-06-20T10:49:21.934Z,27.04
2019-06-20T10:50:21.925Z,27.13
2019-06-20T10:51:21.898Z,27.12
2019-06-20T10:52:21.893Z,27.07
2019-06-20T10:53:21.876Z,27.12
2019-06-20T10:54:21.878Z,27.12
2019-06-20T10:55:21.853Z,27.13
2019-06-20T10:56:21.853Z,27.17
2019-06-20T10:57:21.839Z,27.10
2019-06-20T10:58:21.832Z,27.13
2019-06-20T10:59:21.831Z,27.14
2019-06-20T11:00:30.987Z,27.10
2019-06-20T11:01:21.793Z,27.18
2019-06-20T11:02:21.797Z,27.14
2019-06-20T11:03:21.785Z,27.18
2019-06-20T11:04:21.782Z,27.14
2019-06-20T11:05:21.740Z,27.19
2019-06-20T11:06:21.747Z,27.21
2019-06-20T11:07:21.755Z,27.14
2019-06-20T11:08:21.731Z,27.14
2019-06-20T11:09:21.726Z,27.14
2019-06-20T11:10:21.714Z,27.18
2019-06-20T11:11:21.677Z,27.09
2019-06-20T11:12:21.668Z,27.22
2019-06-20T11:13:21.667Z,27.13
2019-06-20T11:14:21.657Z,27.28
2019-06-20T11:15:21.668Z,27.21
2019-06-20T11:16:22.402Z,27.27
2019-06-20T11:17:21.610Z,27.25
2019-06-20T11:18:22.380Z,27.22
2019-06-20T11:19:22.382Z,27.21
2019-06-20T11:20:21.602Z,27.28
2019-06-20T11:21:21.574Z,27.09
2019-06-20T11:22:21.558Z,27.22
2019-06-20T11:23:21.545Z,27.24
2019-06-20T11:24:22.386Z,27.18
2019-06-20T11:25:21.538Z,27.19
2019-06-20T11:26:21.522Z,27.19
2019-06-20T11:27:22.370Z,27.24
2019-06-20T11:28:21.495Z,27.24
2019-06-20T11:29:21.502Z,27.21
2019-06-20T11:30:21.481Z,27.13
2019-06-20T11:31:21.469Z,27.19
2019-06-20T11:32:22.371Z,27.19
2019-06-20T11:33:21.438Z,27.27
2019-06-20T11:34:21.435Z,27.28
2019-06-20T11:35:21.446Z,27.13
2019-06-20T11:36:21.424Z,27.22
2019-06-20T11:37:21.400Z,27.28
2019-06-20T11:38:21.387Z,27.25
2019-06-20T11:39:21.384Z,27.24
2019-06-20T11:40:21.386Z,27.07
2019-06-20T11:41:21.352Z,27.22
2019-06-20T11:42:21.340Z,27.14
2019-06-20T11:43:21.335Z,27.21
2019-06-20T11:44:21.890Z,27.10
2019-06-20T11:45:21.389Z,27.29
2019-06-20T11:46:21.291Z,27.21
2019-06-20T11:47:21.877Z,27.17
2019-06-20T11:48:21.325Z,27.14
2019-06-20T11:49:21.255Z,27.22
2019-06-20T11:50:21.256Z,27.25
2019-06-20T11:51:21.237Z,27.17
2019-06-20T11:52:21.242Z,27.22
2019-06-20T11:53:21.220Z,27.25
2019-06-20T11:54:21.236Z,27.22
2019-06-20T11:55:21.237Z,27.21
2019-06-20T11:56:21.186Z,27.17
2019-06-20T11:57:21.175Z,27.21
2019-06-20T11:58:23.485Z,27.12
2019-06-20T11:59:21.160Z,27.19
2019-06-20T12:00:21.171Z,27.17
2019-06-20T12:01:32.470Z,27.17
2019-06-20T12:02:21.114Z,27.14
2019-06-20T12:03:21.873Z,27.14
2019-06-20T12:04:21.101Z,27.19
2019-06-20T12:05:21.115Z,27.19
2019-06-20T12:06:21.108Z,27.19
2019-06-20T12:07:21.061Z,27.22
2019-06-20T12:08:21.048Z,27.13
2019-06-20T12:09:21.039Z,27.14
2019-06-20T12:10:21.069Z,27.10
2019-06-20T12:11:21.045Z,27.14
2019-06-20T12:12:21.007Z,27.17
2019-06-20T12:13:21.882Z,27.13
2019-06-20T12:14:20.991Z,27.21
2019-06-20T12:15:21.890Z,27.21
2019-06-20T12:16:20.989Z,27.18
2019-06-20T12:17:20.954Z,27.14
2019-06-20T12:18:20.943Z,27.19
2019-06-20T12:19:20.954Z,27.17
2019-06-20T12:20:21.892Z,27.14
2019-06-20T12:21:20.919Z,27.14
2019-06-20T12:22:20.911Z,27.22
2019-06-20T12:23:20.885Z,27.14
2019-06-20T12:24:20.879Z,27.19
2019-06-20T12:25:20.927Z,27.14
2019-06-20T12:26:20.960Z,27.12
2019-06-20T12:27:20.845Z,27.14
2019-06-20T12:28:20.833Z,27.17
2019-06-20T12:29:20.820Z,27.19
2019-06-20T12:30:21.397Z,27.21
2019-06-20T12:31:20.814Z,27.12
2019-06-20T12:32:20.786Z,27.17
2019-06-20T12:33:20.796Z,27.21
2019-06-20T12:34:21.401Z,27.12
2019-06-20T12:35:20.770Z,27.19
2019-06-20T12:36:20.756Z,27.19
2019-06-20T12:37:20.734Z,27.07
2019-06-20T12:38:20.718Z,27.17
2019-06-20T12:39:20.725Z,27.17
2019-06-20T12:40:20.714Z,27.10
2019-06-20T12:41:20.716Z,27.18
2019-06-20T12:42:20.677Z,27.19
2019-06-20T12:43:21.388Z,27.14
2019-06-20T12:44:20.674Z,27.17
2019-06-20T12:45:20.681Z,27.18
2019-06-20T12:46:20.643Z,27.18
2019-06-20T12:47:20.625Z,27.13
2019-06-20T12:48:20.618Z,27.12
2019-06-20T12:49:23.853Z,27.18
2019-06-20T12:50:20.612Z,27.09
2019-06-20T12:51:20.588Z,27.10
2019-06-20T12:52:20.580Z,27.12